Time;durP1;ratioP1;P1;durP2;ratioP2;P2;SDS_P1;SDS_P2;PMS_P1;PMS_P2;Temp;Humidity;BMP_temperature;BMP_pressure;BME280_temperature;BME280_humidity;BME280_pressure;Samples;Min_cycle;Max_cycle;Signal;HPM_P1;HPM_P2
2023/01/11 00:04:51;;;;;;;40.63;21.30;;;4.10;99.90;;;;;;10159757;29;20207;-84
2023/01/11 00:10:12;;;;;;;38.00;20.77;;;4.10;99.90;;;;;;10147270;29;20469;-83
2023/01/11 00:15:35;;;;;;;35.70;20.47;;;4.00;99.90;;;;;;10145747;29;20206;-84
2023/01/11 00:20:56;;;;;;;35.83;23.43;;;4.10;99.90;;;;;;10159816;29;20229;-84
2023/01/11 00:26:18;;;;;;;40.10;21.53;;;4.10;99.90;;;;;;10174802;29;20422;-79
2023/01/11 00:31:39;;;;;;;33.60;18.77;;;4.10;99.90;;;;;;10160720;29;20208;-79
2023/01/11 00:37:00;;;;;;;36.93;20.83;;;4.00;99.90;;;;;;10159164;29;20206;-81
2023/01/11 00:48:04;;;;;;;34.80;18.13;;;4.10;99.90;;;;;;10159411;29;20238;-81
2023/01/11 00:53:25;;;;;;;31.57;16.47;;;4.10;99.90;;;;;;10158351;29;20500;-82
2023/01/11 00:58:47;;;;;;;27.03;16.90;;;4.10;99.90;;;;;;10171305;29;20238;-79
2023/01/11 01:04:08;;;;;;;26.07;16.67;;;4.10;99.90;;;;;;10172896;29;20206;-80
2023/01/11 01:09:29;;;;;;;48.43;29.53;;;4.10;99.90;;;;;;10148459;29;20235;-82
2023/01/11 01:14:50;;;;;;;37.53;22.30;;;4.10;99.90;;;;;;10170233;29;20200;-83
2023/01/11 01:20:12;;;;;;;30.30;17.10;;;4.10;99.90;;;;;;10175361;29;20488;-79
2023/01/11 01:25:36;;;;;;;29.33;15.33;;;4.10;99.90;;;;;;10177339;29;20203;-82
2023/01/11 01:30:57;;;;;;;26.93;15.13;;;4.00;99.90;;;;;;10171393;29;20201;-80
2023/01/11 01:36:18;;;;;;;24.47;15.00;;;3.80;99.90;;;;;;10168541;29;20259;-85
2023/01/11 01:41:40;;;;;;;24.07;13.03;;;3.70;99.90;;;;;;10157787;29;20273;-84
2023/01/11 01:47:03;;;;;;;27.00;14.40;;;3.70;99.90;;;;;;10142645;29;20232;-79
2023/01/11 01:52:27;;;;;;;21.40;14.07;;;3.60;99.90;;;;;;10182638;29;20493;-79
2023/01/11 01:57:50;;;;;;;23.43;16.53;;;3.50;99.90;;;;;;10150993;29;20250;-83
2023/01/11 02:03:16;;;;;;;30.03;15.63;;;3.50;99.90;;;;;;10156127;29;20282;-83
2023/01/11 02:08:42;;;;;;;24.50;14.83;;;3.40;99.90;;;;;;10142692;29;20230;-82
2023/01/11 02:14:08;;;;;;;24.60;13.80;;;3.40;99.90;;;;;;10156380;29;20213;-82
2023/01/11 02:19:51;;;;;;;24.50;13.10;;;3.40;99.90;;;;;;10155085;29;20206;-83
2023/01/11 02:25:44;;;;;;;21.93;12.23;;;3.30;99.90;;;;;;10152928;29;20437;-78
2023/01/11 02:31:26;;;;;;;26.47;13.77;;;3.30;99.90;;;;;;10181090;29;20272;-83
2023/01/11 02:37:33;;;;;;;21.90;12.53;;;3.30;99.90;;;;;;10147559;29;20209;-79
2023/01/11 02:48:53;;;;;;;21.93;13.33;;;3.30;99.90;;;;;;10199000;29;20558;-84
2023/01/11 02:54:18;;;;;;;22.20;12.80;;;3.30;99.90;;;;;;10186578;29;20495;-83
2023/01/11 02:59:40;;;;;;;31.67;19.83;;;3.30;99.90;;;;;;10198757;29;20563;-83
2023/01/11 03:05:14;;;;;;;29.90;17.10;;;3.20;99.90;;;;;;10153680;29;20212;-84
2023/01/11 03:11:03;;;;;;;26.20;14.33;;;3.30;99.90;;;;;;10186606;29;20240;-83
2023/01/11 03:16:56;;;;;;;24.43;12.97;;;3.20;99.90;;;;;;10154212;29;20403;-83
2023/01/11 03:22:30;;;;;;;22.77;12.27;;;3.10;99.90;;;;;;10144073;29;20220;-79
2023/01/11 03:28:01;;;;;;;23.30;13.13;;;3.10;99.90;;;;;;10133213;29;20252;-83
2023/01/11 03:33:39;;;;;;;24.33;13.23;;;3.10;99.90;;;;;;10149386;29;20229;-84
2023/01/11 03:39:25;;;;;;;18.17;11.60;;;3.00;99.90;;;;;;10149772;29;20226;-79
2023/01/11 03:44:52;;;;;;;24.90;12.80;;;2.90;99.90;;;;;;10133399;29;20217;-80
2023/01/11 03:50:15;;;;;;;21.90;12.13;;;2.80;99.90;;;;;;10146431;29;20233;-80
2023/01/11 03:55:43;;;;;;;30.10;16.53;;;2.70;99.90;;;;;;10173840;29;20436;-81
2023/01/11 04:01:05;;;;;;;23.00;11.67;;;2.60;99.90;;;;;;10160533;29;20452;-84
2023/01/11 04:06:26;;;;;;;25.13;12.73;;;2.60;99.90;;;;;;10169566;29;20441;-80
2023/01/11 04:11:47;;;;;;;25.93;13.30;;;2.60;99.90;;;;;;10146428;29;20208;-81
2023/01/11 04:17:08;;;;;;;22.63;12.53;;;2.60;99.90;;;;;;10176344;29;20408;-83
2023/01/11 04:22:30;;;;;;;19.20;10.83;;;2.50;99.90;;;;;;10165111;29;20213;-84
2023/01/11 04:27:51;;;;;;;21.67;12.80;;;2.50;99.90;;;;;;10162066;29;20229;-78
2023/01/11 04:33:13;;;;;;;24.93;12.63;;;2.50;99.90;;;;;;10159141;29;20240;-84
2023/01/11 04:38:34;;;;;;;23.20;14.40;;;2.60;99.90;;;;;;10160581;29;20197;-80
2023/01/11 04:43:56;;;;;;;22.27;12.53;;;2.60;99.90;;;;;;10132604;29;20392;-82
2023/01/11 04:49:17;;;;;;;20.03;11.10;;;2.60;99.90;;;;;;10158921;29;20236;-81
2023/01/11 04:54:39;;;;;;;20.03;10.30;;;2.60;99.90;;;;;;10179110;29;20232;-84
2023/01/11 05:00:00;;;;;;;18.50;10.43;;;2.60;99.90;;;;;;10197763;29;20608;-80
2023/01/11 05:05:21;;;;;;;21.60;14.30;;;2.60;99.90;;;;;;10136469;29;20213;-78
2023/01/11 05:10:54;;;;;;;27.70;17.37;;;2.60;99.90;;;;;;10160102;29;20244;-82
2023/01/11 05:16:23;;;;;;;30.70;19.70;;;2.60;99.90;;;;;;10157445;29;20229;-80
2023/01/11 05:21:44;;;;;;;27.30;13.40;;;2.50;99.90;;;;;;10157371;29;20229;-78
2023/01/11 05:27:05;;;;;;;24.63;14.13;;;2.60;99.90;;;;;;10146511;29;20217;-81
2023/01/11 05:32:26;;;;;;;28.90;15.80;;;2.60;99.90;;;;;;10158730;29;20408;-82
2023/01/11 05:37:47;;;;;;;27.27;16.10;;;2.60;99.90;;;;;;10169534;29;20229;-79
2023/01/11 05:43:08;;;;;;;28.47;17.10;;;2.60;99.90;;;;;;10156355;29;20221;-77
2023/01/11 05:48:29;;;;;;;30.53;16.83;;;2.50;99.90;;;;;;10172565;29;20236;-82
2023/01/11 05:53:51;;;;;;;23.50;14.60;;;2.50;99.90;;;;;;10155981;29;20213;-79
2023/01/11 05:59:12;;;;;;;27.13;15.47;;;2.60;99.90;;;;;;10158780;29;20255;-84
2023/01/11 06:04:34;;;;;;;32.47;16.57;;;2.60;99.90;;;;;;10159290;29;20224;-81
2023/01/11 06:09:55;;;;;;;38.83;25.00;;;2.60;99.90;;;;;;10173554;29;20228;-83
2023/01/11 06:15:17;;;;;;;38.33;25.80;;;2.70;99.90;;;;;;10172212;29;20209;-85
2023/01/11 06:20:38;;;;;;;27.87;19.30;;;2.70;99.90;;;;;;10156651;29;20205;-83
2023/01/11 06:26:06;;;;;;;23.43;14.87;;;2.70;99.90;;;;;;10170895;29;20511;-83
2023/01/11 06:31:27;;;;;;;31.73;15.07;;;2.60;99.90;;;;;;10157405;29;20238;-84
2023/01/11 06:36:48;;;;;;;30.90;15.43;;;2.70;99.90;;;;;;10170219;29;20209;-83
2023/01/11 06:42:10;;;;;;;25.97;13.50;;;2.80;99.90;;;;;;10169405;29;20229;-79
2023/01/11 06:47:31;;;;;;;20.73;12.90;;;2.80;99.90;;;;;;10169091;29;20232;-82
2023/01/11 06:53:02;;;;;;;23.10;12.50;;;2.90;99.90;;;;;;10170932;29;20527;-84
2023/01/11 06:58:24;;;;;;;24.33;11.13;;;3.00;99.90;;;;;;10130001;29;20266;-83
2023/01/11 07:03:45;;;;;;;27.40;14.70;;;3.00;99.90;;;;;;10135956;29;20209;-79
2023/01/11 07:09:06;;;;;;;25.63;11.37;;;3.10;99.90;;;;;;10156664;29;20287;-82
2023/01/11 07:14:28;;;;;;;16.47;9.50;;;3.10;99.90;;;;;;10162243;29;20269;-80
2023/01/11 07:19:49;;;;;;;21.13;12.43;;;3.10;99.90;;;;;;10163624;29;20231;-79
2023/01/11 07:25:11;;;;;;;22.17;9.83;;;3.20;99.90;;;;;;10202867;29;20229;-82
2023/01/11 07:30:35;;;;;;;24.93;13.33;;;3.20;99.90;;;;;;10168287;29;20233;-84
2023/01/11 07:36:11;;;;;;;20.60;11.77;;;3.20;99.90;;;;;;10164867;29;20201;-78
2023/01/11 07:47:12;;;;;;;25.83;14.30;;;3.40;99.90;;;;;;10161684;29;20224;-79
2023/01/11 07:52:33;;;;;;;27.73;13.37;;;3.40;99.90;;;;;;10161074;29;20200;-82
2023/01/11 07:57:57;;;;;;;28.33;14.97;;;3.40;99.90;;;;;;10170352;29;20249;-80
2023/01/11 08:03:19;;;;;;;26.00;11.93;;;3.30;99.90;;;;;;10172715;29;20211;-79
2023/01/11 08:08:41;;;;;;;20.03;11.03;;;3.40;99.90;;;;;;10122517;29;20244;-78
2023/01/11 08:19:43;;;;;;;20.80;10.40;;;3.40;99.90;;;;;;10175722;29;20205;-78
2023/01/11 08:25:04;;;;;;;26.77;13.50;;;3.50;99.90;;;;;;10154339;29;20247;-83
2023/01/11 08:30:26;;;;;;;28.20;12.90;;;3.50;99.90;;;;;;10173552;29;20243;-80
2023/01/11 08:35:47;;;;;;;19.97;10.37;;;3.60;99.90;;;;;;10184270;29;20201;-80
2023/01/11 08:41:12;;;;;;;26.40;12.60;;;3.70;99.90;;;;;;10160461;29;20211;-89
2023/01/11 08:46:36;;;;;;;14.17;7.60;;;3.70;99.90;;;;;;10142017;29;20218;-79
2023/01/11 08:51:57;;;;;;;17.70;8.90;;;3.70;99.90;;;;;;10134199;29;20253;-80
2023/01/11 08:57:19;;;;;;;22.73;10.13;;;3.80;99.90;;;;;;10172558;29;20215;-81
2023/01/11 09:02:40;;;;;;;17.53;8.07;;;3.80;1.00;;;;;;10170184;29;20275;-79
2023/01/11 09:08:02;;;;;;;13.53;7.97;;;3.80;1.00;;;;;;10151282;29;20257;-80
2023/01/11 09:13:23;;;;;;;18.97;9.20;;;3.90;99.90;;;;;;10153535;29;20553;-81
2023/01/11 09:18:45;;;;;;;15.17;8.03;;;3.80;99.90;;;;;;10120887;29;20214;-79
2023/01/11 09:24:06;;;;;;;12.40;6.60;;;4.00;99.90;;;;;;10149276;29;20236;-80
2023/01/11 09:29:28;;;;;;;26.60;12.00;;;4.00;1.00;;;;;;10133505;29;20286;-80
2023/01/11 09:34:52;;;;;;;18.13;9.47;;;4.20;1.00;;;;;;10130731;29;20210;-79
2023/01/11 09:40:21;;;;;;;11.63;6.40;;;4.50;82.60;;;;;;10152559;29;20304;-82
2023/01/11 09:45:45;;;;;;;10.27;5.40;;;4.60;1.00;;;;;;10160533;29;20218;-82
2023/01/11 09:51:11;;;;;;;10.13;5.80;;;4.70;99.90;;;;;;10139669;29;20236;-85
2023/01/11 09:56:56;;;;;;;11.70;5.23;;;4.90;13.50;;;;;;10159365;29;20212;-80
2023/01/11 10:02:43;;;;;;;11.57;5.80;;;4.80;1.00;;;;;;10159518;29;20751;-82
2023/01/11 10:08:23;;;;;;;12.20;5.33;;;4.90;1.00;;;;;;10138670;29;20241;-81
2023/01/11 10:14:22;;;;;;;14.00;6.47;;;5.10;99.90;;;;;;10164394;29;20258;-84
2023/01/11 10:19:48;;;;;;;13.00;6.23;;;5.00;99.90;;;;;;10152640;29;20343;-84
2023/01/11 10:25:23;;;;;;;11.23;6.07;;;5.10;1.00;;;;;;10145067;29;20228;-86
2023/01/11 10:42:10;;;;;;;15.27;7.93;;;5.10;5.90;;;;;;10137406;29;20210;-85
2023/01/11 10:47:41;;;;;;;13.27;6.90;;;5.00;1.00;;;;;;10122519;29;20215;-81
2023/01/11 10:53:22;;;;;;;14.77;5.70;;;5.10;1.00;;;;;;10134520;29;20221;-83
2023/01/11 10:59:06;;;;;;;11.97;6.50;;;5.00;99.90;;;;;;10155186;29;20246;-82
2023/01/11 11:05:10;;;;;;;13.47;6.80;;;5.00;1.00;;;;;;10172348;29;20220;-82
2023/01/11 11:10:50;;;;;;;17.17;6.17;;;4.90;99.90;;;;;;10171094;29;20545;-81
2023/01/11 11:16:21;;;;;;;16.23;6.27;;;5.10;1.00;;;;;;10144752;29;20208;-82
2023/01/11 11:21:42;;;;;;;12.23;6.37;;;5.10;1.00;;;;;;10158136;29;20294;-83
2023/01/11 11:27:17;;;;;;;11.10;5.73;;;5.20;1.00;;;;;;10120466;29;20215;-80
2023/01/11 11:32:50;;;;;;;20.63;8.13;;;5.20;1.00;;;;;;10153592;29;20516;-81
2023/01/11 11:38:22;;;;;;;18.37;8.23;;;5.20;99.90;;;;;;10156952;29;20206;-78
2023/01/11 11:43:47;;;;;;;19.57;9.17;;;5.10;1.00;;;;;;10158361;29;20210;-84
2023/01/11 11:49:15;;;;;;;15.20;7.90;;;5.10;99.90;;;;;;10174081;29;20241;-85
2023/01/11 11:54:42;;;;;;;21.57;8.77;;;5.20;25.90;;;;;;10178116;29;20281;-83
2023/01/11 12:00:28;;;;;;;18.53;8.80;;;5.10;1.00;;;;;;10162501;29;20504;-83
2023/01/11 12:05:51;;;;;;;18.83;6.77;;;5.10;1.00;;;;;;10155130;29;20421;-83
2023/01/11 12:11:21;;;;;;;21.63;10.00;;;5.10;1.00;;;;;;10141295;29;20419;-82
2023/01/11 12:16:44;;;;;;;19.33;8.83;;;5.10;99.90;;;;;;10140141;29;20235;-81
2023/01/11 12:22:19;;;;;;;17.20;8.57;;;5.20;99.90;;;;;;10139281;29;20387;-81
2023/01/11 12:27:54;;;;;;;21.27;9.63;;;5.20;99.90;;;;;;10154328;29;20218;-80
2023/01/11 12:33:27;;;;;;;16.17;6.60;;;5.10;99.90;;;;;;10152859;29;20407;-80
2023/01/11 12:39:06;;;;;;;11.93;6.70;;;5.20;1.00;;;;;;10157945;29;20277;-81
2023/01/11 12:45:07;;;;;;;17.43;8.20;;;5.10;99.90;;;;;;10144473;29;20241;-80
2023/01/11 12:50:53;;;;;;;19.60;8.20;;;5.30;64.60;;;;;;10154057;29;20246;-80
2023/01/11 12:56:34;;;;;;;11.83;5.70;;;5.20;99.90;;;;;;10153783;29;20213;-79
2023/01/11 13:02:04;;;;;;;14.53;6.83;;;5.20;99.90;;;;;;10152618;29;20589;-82
2023/01/11 13:07:37;;;;;;;18.70;8.77;;;5.10;1.00;;;;;;10139705;29;20300;-81
2023/01/11 13:13:17;;;;;;;15.63;6.93;;;5.10;1.00;;;;;;10152111;29;20231;-83
2023/01/11 13:19:00;;;;;;;13.87;6.83;;;5.10;99.90;;;;;;10153440;29;20263;-81
2023/01/11 13:24:31;;;;;;;20.20;8.37;;;5.10;1.00;;;;;;10151810;29;20219;-82
2023/01/11 13:29:58;;;;;;;13.00;6.97;;;5.10;1.00;;;;;;10152348;29;20244;-82
2023/01/11 13:35:28;;;;;;;17.50;7.30;;;5.00;1.00;;;;;;10138987;29;20210;-86
2023/01/11 13:40:55;;;;;;;18.00;7.90;;;5.10;1.00;;;;;;10142676;29;20324;-79
2023/01/11 13:46:34;;;;;;;21.50;8.43;;;5.10;1.00;;;;;;10147833;29;20214;-80
2023/01/11 13:52:02;;;;;;;19.53;10.73;;;5.00;99.90;;;;;;10168204;29;20344;-80
2023/01/11 13:57:48;;;;;;;17.80;7.17;;;5.00;1.00;;;;;;10138815;29;20209;-80
2023/01/11 14:03:19;;;;;;;17.60;8.27;;;5.10;1.00;;;;;;10171363;29;20301;-80
2023/01/11 14:09:08;;;;;;;16.03;7.90;;;5.00;1.00;;;;;;10156318;29;20429;-79
2023/01/11 14:15:02;;;;;;;19.70;8.87;;;5.10;1.00;;;;;;10151708;29;20225;-81
2023/01/11 14:20:51;;;;;;;37.27;17.70;;;5.00;31.10;;;;;;10159656;29;20221;-81
2023/01/11 14:26:21;;;;;;;20.23;9.20;;;4.90;99.90;;;;;;10138863;29;20498;-81
2023/01/11 14:32:01;;;;;;;21.83;12.27;;;5.00;99.90;;;;;;10162731;29;20253;-81
2023/01/11 14:38:05;;;;;;;41.07;22.10;;;4.90;1.00;;;;;;10158415;29;20406;-82
2023/01/11 14:43:56;;;;;;;24.60;12.90;;;4.90;1.00;;;;;;10177263;29;20217;-84
2023/01/11 14:49:17;;;;;;;19.60;9.53;;;4.90;1.00;;;;;;10166786;29;20238;-83
2023/01/11 14:54:42;;;;;;;19.57;8.37;;;4.90;1.00;;;;;;10119396;29;20584;-83
2023/01/11 15:00:19;;;;;;;18.10;9.60;;;4.90;1.00;;;;;;10117959;29;20292;-83
2023/01/11 15:06:06;;;;;;;23.67;11.20;;;4.90;1.00;;;;;;10116612;29;20226;-81
2023/01/11 15:11:37;;;;;;;24.90;11.63;;;5.00;1.00;;;;;;10103174;29;20315;-83
2023/01/11 15:22:44;;;;;;;29.83;10.80;;;5.00;1.00;;;;;;10160591;29;20460;-86
2023/01/11 15:28:31;;;;;;;23.30;9.27;;;5.00;1.00;;;;;;10145181;29;20281;-85
2023/01/11 15:33:53;;;;;;;22.30;12.77;;;5.00;25.00;;;;;;10158775;29;20194;-86
2023/01/11 15:39:20;;;;;;;24.67;11.17;;;5.00;1.00;;;;;;10152371;29;20211;-83
2023/01/11 15:45:26;;;;;;;25.60;13.67;;;4.90;99.90;;;;;;10170918;23;20498;-88
2023/01/11 15:51:11;;;;;;;20.87;9.83;;;4.80;99.90;;;;;;10163002;29;20233;-85
2023/01/11 15:56:51;;;;;;;26.93;13.17;;;5.00;69.80;;;;;;10082368;29;20219;-83
2023/01/11 16:02:13;;;;;;;23.93;11.37;;;5.00;99.90;;;;;;10079598;29;20243;-92
2023/01/11 16:08:17;;;;;;;23.90;10.83;;;5.00;17.40;;;;;;10109092;29;20204;-81
2023/01/11 16:13:57;;;;;;;23.00;11.47;;;4.90;99.90;;;;;;10089010;29;20708;-81
2023/01/11 16:19:55;;;;;;;22.30;10.50;;;5.00;99.90;;;;;;10104759;29;20204;-82
2023/01/11 16:25:47;;;;;;;23.43;11.53;;;4.90;99.90;;;;;;10110719;29;20211;-78
2023/01/11 16:32:18;;;;;;;23.80;12.10;;;4.90;1.00;;;;;;10077160;29;20288;-80
2023/01/11 16:38:10;;;;;;;32.87;14.03;;;4.90;1.00;;;;;;10075245;29;20269;-79
2023/01/11 16:43:38;;;;;;;17.90;9.93;;;5.00;1.00;;;;;;10062093;29;20204;-80
2023/01/11 16:49:09;;;;;;;20.63;9.20;;;4.90;1.00;;;;;;10096056;29;20242;-81
2023/01/11 16:54:32;;;;;;;18.50;9.53;;;4.90;1.00;;;;;;10091032;29;20386;-80
2023/01/11 17:00:04;;;;;;;23.50;10.90;;;5.00;1.00;;;;;;10046413;29;20262;-81
2023/01/11 17:05:28;;;;;;;24.23;12.83;;;4.90;1.00;;;;;;10051243;29;20204;-80
2023/01/11 17:10:52;;;;;;;24.83;12.00;;;5.00;1.00;;;;;;10043593;29;20242;-80
2023/01/11 17:16:16;;;;;;;36.77;19.57;;;5.00;1.00;;;;;;10074392;29;20293;-80
2023/01/11 17:21:38;;;;;;;33.67;18.23;;;4.90;1.00;;;;;;10050431;29;20212;-80
2023/01/11 17:27:01;;;;;;;21.80;10.47;;;4.90;1.00;;;;;;10082662;29;20377;-80
2023/01/11 17:32:37;;;;;;;24.43;12.00;;;5.10;1.00;;;;;;10101191;29;20250;-81
2023/01/11 17:38:05;;;;;;;24.00;12.40;;;5.00;99.90;;;;;;10082474;29;20206;-81
2023/01/11 17:49:21;;;;;;;27.87;12.73;;;4.80;1.00;;;;;;10087892;29;20236;-80
2023/01/11 17:54:42;;;;;;;37.20;17.27;;;4.80;1.00;;;;;;10055367;29;20552;-80
2023/01/11 18:00:25;;;;;;;28.73;14.00;;;4.70;1.00;;;;;;10080042;29;20267;-80
2023/01/11 18:05:46;;;;;;;24.93;13.73;;;4.70;1.00;;;;;;10066819;29;20199;-81
2023/01/11 18:11:07;;;;;;;32.90;14.80;;;4.70;27.40;;;;;;10078878;29;20235;-81
2023/01/11 18:16:32;;;;;;;33.70;15.67;;;4.60;99.90;;;;;;10079369;29;20535;-80
2023/01/11 18:21:54;;;;;;;30.37;14.13;;;4.50;99.90;;;;;;10094797;29;20373;-81
2023/01/11 18:27:22;;;;;;;34.17;16.57;;;4.50;99.90;;;;;;10059605;29;20200;-81
2023/01/11 18:32:43;;;;;;;55.97;24.70;;;4.40;99.90;;;;;;10079215;29;20530;-82
2023/01/11 18:38:15;;;;;;;38.63;17.43;;;4.40;99.90;;;;;;10069486;29;20262;-81
2023/01/11 18:43:36;;;;;;;40.13;20.37;;;4.40;99.90;;;;;;10054391;29;20231;-81
2023/01/11 18:48:57;;;;;;;48.63;26.37;;;4.40;99.90;;;;;;10078878;29;20239;-81
2023/01/11 18:54:19;;;;;;;33.30;16.70;;;4.40;99.90;;;;;;10086770;29;20550;-80
2023/01/11 18:59:40;;;;;;;31.03;16.87;;;4.40;99.90;;;;;;10070118;29;20195;-81
2023/01/11 19:05:02;;;;;;;36.90;19.07;;;4.40;99.90;;;;;;10057297;29;20493;-82
2023/01/11 19:10:25;;;;;;;43.03;27.70;;;4.30;99.90;;;;;;10068985;29;20243;-82
2023/01/11 19:15:47;;;;;;;43.30;20.90;;;4.30;99.90;;;;;;10090021;29;20275;-83
2023/01/11 19:21:10;;;;;;;24.03;14.23;;;4.30;99.90;;;;;;10106815;29;20400;-81
2023/01/11 19:26:31;;;;;;;27.77;16.67;;;4.40;99.90;;;;;;10085745;29;20559;-80
2023/01/11 19:31:54;;;;;;;29.07;18.10;;;4.40;99.90;;;;;;10065129;29;20302;-81
2023/01/11 19:37:15;;;;;;;21.47;11.00;;;4.30;99.90;;;;;;10046139;29;20210;-81
2023/01/11 19:42:39;;;;;;;21.53;12.67;;;4.40;99.90;;;;;;10047952;29;20221;-81
2023/01/11 19:48:00;;;;;;;15.30;10.63;;;4.40;99.90;;;;;;10061058;29;20280;-80
2023/01/11 19:53:21;;;;;;;21.97;12.97;;;4.40;99.90;;;;;;10055371;29;20267;-83
2023/01/11 19:58:42;;;;;;;16.93;10.83;;;4.30;99.90;;;;;;10070566;29;20219;-81
2023/01/11 20:04:04;;;;;;;22.63;13.10;;;4.40;99.90;;;;;;10069518;29;20239;-81
2023/01/11 20:09:26;;;;;;;21.50;12.17;;;4.50;99.90;;;;;;10070012;29;20231;-80
2023/01/11 20:14:47;;;;;;;21.60;13.07;;;4.40;99.90;;;;;;10070452;29;20558;-81
2023/01/11 20:20:09;;;;;;;18.93;10.63;;;4.50;99.90;;;;;;10070113;29;20213;-80
2023/01/11 20:25:31;;;;;;;14.90;8.53;;;4.50;99.90;;;;;;10055565;29;20552;-81
2023/01/11 20:30:53;;;;;;;10.73;7.73;;;4.50;99.90;;;;;;10069021;29;20249;-80
2023/01/11 20:36:16;;;;;;;12.10;8.60;;;4.60;99.90;;;;;;10080538;29;20204;-80
2023/01/11 20:41:46;;;;;;;16.33;9.80;;;4.60;99.90;;;;;;10082329;29;20228;-80
2023/01/11 20:47:07;;;;;;;20.63;10.77;;;4.60;99.90;;;;;;10082323;29;20224;-81
2023/01/11 20:52:28;;;;;;;18.40;10.23;;;4.60;99.90;;;;;;10081998;29;20244;-81
2023/01/11 20:57:50;;;;;;;14.07;8.70;;;4.60;99.90;;;;;;10072330;29;20214;-80
2023/01/11 21:03:11;;;;;;;17.03;10.13;;;4.70;99.90;;;;;;10097257;29;20411;-80
2023/01/11 21:08:36;;;;;;;14.17;9.10;;;4.70;99.90;;;;;;10094317;29;20545;-80
2023/01/11 21:13:58;;;;;;;11.63;7.93;;;4.70;99.90;;;;;;10069552;29;20216;-80
2023/01/11 21:19:19;;;;;;;12.47;8.60;;;4.80;99.90;;;;;;10047973;29;20202;-80
2023/01/11 21:24:43;;;;;;;14.13;8.60;;;4.70;99.90;;;;;;10081059;29;20212;-82
2023/01/11 21:30:05;;;;;;;13.93;8.87;;;4.70;99.90;;;;;;10080012;29;20264;-80
2023/01/11 21:35:27;;;;;;;11.07;7.90;;;4.80;99.90;;;;;;10095235;29;20199;-83
2023/01/11 21:40:48;;;;;;;12.73;8.63;;;4.80;99.90;;;;;;10081022;29;20511;-80
2023/01/11 21:46:11;;;;;;;12.50;8.93;;;4.90;99.90;;;;;;10083663;29;20212;-80
2023/01/11 21:51:33;;;;;;;14.07;8.90;;;4.80;99.90;;;;;;10080046;29;20275;-82
2023/01/11 21:56:54;;;;;;;12.83;8.30;;;4.80;99.90;;;;;;10092471;29;20230;-81
2023/01/11 22:02:15;;;;;;;11.27;8.27;;;4.90;99.90;;;;;;10079998;29;20286;-81
2023/01/11 22:07:39;;;;;;;12.00;9.13;;;4.90;99.90;;;;;;10079798;29;20228;-80
2023/01/11 22:13:00;;;;;;;18.33;12.00;;;4.90;99.90;;;;;;10080671;29;20315;-82
2023/01/11 22:18:21;;;;;;;17.30;11.10;;;4.90;99.90;;;;;;10058416;29;20254;-82
2023/01/11 22:23:47;;;;;;;13.87;9.90;;;5.00;99.90;;;;;;10040912;29;20197;-82
2023/01/11 22:29:11;;;;;;;14.60;10.43;;;4.90;99.90;;;;;;10047468;29;20307;-82
2023/01/11 22:34:33;;;;;;;16.50;11.67;;;5.00;99.90;;;;;;10092148;29;20199;-80
2023/01/11 22:39:55;;;;;;;16.93;11.70;;;5.10;99.90;;;;;;10057080;29;20211;-80
2023/01/11 22:45:16;;;;;;;14.60;10.40;;;5.10;99.90;;;;;;10080802;29;20226;-84
2023/01/11 22:50:37;;;;;;;16.70;11.53;;;5.10;99.90;;;;;;10085795;29;20235;-82
2023/01/11 22:56:00;;;;;;;15.33;9.43;;;5.10;99.90;;;;;;10086019;29;20631;-83
2023/01/11 23:01:33;;;;;;;18.27;10.43;;;5.20;99.90;;;;;;10086080;29;20280;-82
2023/01/11 23:06:56;;;;;;;15.57;10.77;;;5.20;99.90;;;;;;10091031;29;20220;-83
2023/01/11 23:17:56;;;;;;;16.70;10.63;;;5.20;99.90;;;;;;10047880;29;20289;-82
2023/01/11 23:23:17;;;;;;;15.30;10.63;;;5.20;99.90;;;;;;10085383;29;20204;-83
2023/01/11 23:28:39;;;;;;;16.20;10.70;;;5.20;99.90;;;;;;10076603;29;20261;-82
2023/01/11 23:34:02;;;;;;;15.87;9.87;;;5.20;99.90;;;;;;10084700;29;20502;-83
2023/01/11 23:39:23;;;;;;;14.03;8.00;;;5.30;99.90;;;;;;10049502;29;20205;-84
2023/01/11 23:44:45;;;;;;;12.53;8.57;;;5.30;99.90;;;;;;10071172;29;20440;-82
2023/01/11 23:50:07;;;;;;;10.77;8.00;;;5.30;99.90;;;;;;10099530;29;20285;-82
2023/01/11 23:55:28;;;;;;;14.57;6.97;;;5.30;99.90;;;;;;10098206;29;20266;-82
